Time;durP1;ratioP1;P1;durP2;ratioP2;P2;SDS_P1;SDS_P2;PMS_P1;PMS_P2;Temp;Humidity;BMP_temperature;BMP_pressure;BME280_temperature;BME280_humidity;BME280_pressure;Samples;Min_cycle;Max_cycle;Signal;HPM_P1;HPM_P2
2023/10/11 00:01:42;;;;;;;21.10;7.65;;;;;;;;;;5102841;28;20522;-70
2023/10/11 00:04:23;;;;;;;27.65;7.38;;;;;;;;;;5111205;28;20052;-70
2023/10/11 00:06:50;;;;;;;24.02;7.53;;;;;;;;;;5105868;28;20055;-69
2023/10/11 00:09:18;;;;;;;23.27;7.82;;;;;;;;;;5106734;28;20066;-70
2023/10/11 00:11:45;;;;;;;29.75;8.02;;;;;;;;;;5103265;28;20503;-70
2023/10/11 00:14:13;;;;;;;26.48;7.60;;;;;;;;;;5106920;28;20052;-69
2023/10/11 00:16:43;;;;;;;33.38;7.82;;;;;;;;;;5103158;27;20052;-70
2023/10/11 00:19:15;;;;;;;22.73;7.40;;;;;;;;;;5105198;27;20058;-72
2023/10/11 00:21:42;;;;;;;25.30;7.70;;;;;;;;;;5105015;28;20150;-70
2023/10/11 00:24:09;;;;;;;23.98;8.05;;;;;;;;;;5101477;28;20510;-70
2023/10/11 00:26:40;;;;;;;24.75;7.82;;;;;;;;;;5109871;28;20047;-71
2023/10/11 00:29:09;;;;;;;26.98;7.43;;;;;;;;;;5101759;28;20080;-70
2023/10/11 00:31:38;;;;;;;24.70;7.13;;;;;;;;;;5106820;27;20083;-70
2023/10/11 00:34:10;;;;;;;26.52;7.43;;;;;;;;;;5095630;28;20080;-70
2023/10/11 00:36:37;;;;;;;22.98;7.07;;;;;;;;;;5106928;27;20400;-69
2023/10/11 00:39:07;;;;;;;26.85;7.95;;;;;;;;;;5110706;27;20055;-70
2023/10/11 00:41:39;;;;;;;24.40;7.45;;;;;;;;;;5108683;28;20051;-70
2023/10/11 00:44:07;;;;;;;28.95;8.18;;;;;;;;;;5109599;27;20137;-70
2023/10/11 00:46:44;;;;;;;30.48;7.45;;;;;;;;;;5103482;27;20526;-69
2023/10/11 00:49:13;;;;;;;32.75;7.90;;;;;;;;;;5107980;27;20046;-70
2023/10/11 00:51:42;;;;;;;24.42;8.05;;;;;;;;;;5107111;27;20084;-70
2023/10/11 00:54:12;;;;;;;22.23;6.78;;;;;;;;;;5100351;27;20051;-70
2023/10/11 00:56:43;;;;;;;25.75;7.10;;;;;;;;;;5108483;28;20055;-70
2023/10/11 00:59:14;;;;;;;25.38;7.07;;;;;;;;;;5108881;27;20112;-68
2023/10/11 01:01:42;;;;;;;19.15;6.95;;;;;;;;;;5110471;27;20061;-70
2023/10/11 01:04:10;;;;;;;31.00;6.68;;;;;;;;;;5112357;27;20559;-70
2023/10/11 01:06:39;;;;;;;24.88;6.63;;;;;;;;;;5108435;27;20063;-71
2023/10/11 01:09:16;;;;;;;24.30;6.13;;;;;;;;;;5110999;27;20039;-69
2023/10/11 01:11:45;;;;;;;26.63;6.28;;;;;;;;;;5108007;28;20048;-70
2023/10/11 01:14:12;;;;;;;24.25;6.13;;;;;;;;;;5111015;28;20051;-70
2023/10/11 01:16:41;;;;;;;28.80;6.03;;;;;;;;;;5101984;27;20052;-71
2023/10/11 01:19:11;;;;;;;24.90;6.32;;;;;;;;;;5109761;28;20085;-69
2023/10/11 01:21:41;;;;;;;27.73;5.85;;;;;;;;;;5101091;28;20113;-70
2023/10/11 01:24:09;;;;;;;19.80;6.03;;;;;;;;;;5103043;28;20443;-69
2023/10/11 01:26:36;;;;;;;16.83;6.20;;;;;;;;;;5108252;28;20051;-70
2023/10/11 01:29:05;;;;;;;19.33;5.32;;;;;;;;;;5099659;28;20054;-70
2023/10/11 01:31:34;;;;;;;19.52;5.57;;;;;;;;;;5109938;28;20458;-69
2023/10/11 01:34:01;;;;;;;23.85;6.13;;;;;;;;;;5105533;28;20056;-69
2023/10/11 01:36:29;;;;;;;22.38;5.85;;;;;;;;;;5105165;27;20079;-71
2023/10/11 01:39:02;;;;;;;24.33;5.47;;;;;;;;;;5105409;27;20075;-69
2023/10/11 01:41:29;;;;;;;22.70;6.30;;;;;;;;;;5110896;28;20411;-70
2023/10/11 01:43:57;;;;;;;27.17;6.20;;;;;;;;;;5106133;27;20047;-69
2023/10/11 01:46:26;;;;;;;23.08;5.55;;;;;;;;;;5105785;27;20036;-70
2023/10/11 01:48:54;;;;;;;22.75;5.97;;;;;;;;;;5098759;28;20089;-71
2023/10/11 01:51:26;;;;;;;24.48;5.65;;;;;;;;;;5101559;28;20526;-70
2023/10/11 01:53:53;;;;;;;29.02;5.82;;;;;;;;;;5108140;28;20048;-69
2023/10/11 01:56:24;;;;;;;20.58;5.63;;;;;;;;;;5109273;27;20055;-69
2023/10/11 01:58:51;;;;;;;20.63;5.90;;;;;;;;;;5107496;28;20051;-70
2023/10/11 02:01:21;;;;;;;21.75;5.32;;;;;;;;;;5112011;27;20047;-70
2023/10/11 02:03:51;;;;;;;20.33;5.82;;;;;;;;;;5094019;28;20116;-71
2023/10/11 02:06:19;;;;;;;16.02;5.15;;;;;;;;;;5107074;28;20520;-69
2023/10/11 02:08:46;;;;;;;22.52;5.43;;;;;;;;;;5104860;28;20123;-69
2023/10/11 02:11:14;;;;;;;23.00;5.60;;;;;;;;;;5108179;28;20414;-69
2023/10/11 02:13:44;;;;;;;20.02;5.68;;;;;;;;;;5103112;28;20055;-71
2023/10/11 02:16:14;;;;;;;19.08;5.22;;;;;;;;;;5103355;28;20051;-70
2023/10/11 02:18:41;;;;;;;25.45;5.40;;;;;;;;;;5112021;28;20052;-69
2023/10/11 02:21:09;;;;;;;16.48;5.70;;;;;;;;;;5106830;28;20508;-69
2023/10/11 02:23:37;;;;;;;17.05;5.25;;;;;;;;;;5108444;28;20441;-69
2023/10/11 02:26:09;;;;;;;25.67;5.47;;;;;;;;;;5106023;27;20044;-69
2023/10/11 02:28:38;;;;;;;17.40;5.50;;;;;;;;;;5106375;28;20115;-69
2023/10/11 02:31:07;;;;;;;20.33;5.30;;;;;;;;;;5104576;28;20394;-69
2023/10/11 02:33:35;;;;;;;26.38;5.20;;;;;;;;;;5107292;28;20136;-70
2023/10/11 02:36:08;;;;;;;28.95;5.85;;;;;;;;;;5108586;28;20056;-70
2023/10/11 02:38:39;;;;;;;26.10;5.57;;;;;;;;;;5107383;28;20143;-69
2023/10/11 02:41:07;;;;;;;20.20;4.90;;;;;;;;;;5106885;28;20048;-70
2023/10/11 02:43:47;;;;;;;17.13;5.05;;;;;;;;;;5104748;28;20083;-70
2023/10/11 02:46:16;;;;;;;27.10;5.32;;;;;;;;;;5105847;28;20067;-70
2023/10/11 02:48:46;;;;;;;18.83;5.65;;;;;;;;;;5106587;28;20134;-69
2023/10/11 02:51:16;;;;;;;18.95;5.25;;;;;;;;;;5104854;28;20055;-69
2023/10/11 02:53:44;;;;;;;13.50;5.13;;;;;;;;;;5109435;28;20055;-69
2023/10/11 02:56:12;;;;;;;22.73;5.07;;;;;;;;;;5100235;28;20065;-69
2023/10/11 02:58:40;;;;;;;19.33;4.78;;;;;;;;;;5110139;28;20092;-69
2023/10/11 03:01:14;;;;;;;20.33;4.65;;;;;;;;;;5112087;28;20040;-69
2023/10/11 03:03:43;;;;;;;18.40;4.78;;;;;;;;;;5110415;28;20048;-69
2023/10/11 03:06:11;;;;;;;17.63;5.07;;;;;;;;;;5109086;28;20052;-69
2023/10/11 03:08:40;;;;;;;22.10;4.85;;;;;;;;;;5112321;27;20052;-70
2023/10/11 03:11:09;;;;;;;23.48;4.90;;;;;;;;;;5110090;28;20054;-70
2023/10/11 03:13:41;;;;;;;22.15;5.28;;;;;;;;;;5112685;28;20109;-70
2023/10/11 03:16:11;;;;;;;21.30;5.17;;;;;;;;;;5109313;27;20050;-70
2023/10/11 03:18:39;;;;;;;18.80;4.93;;;;;;;;;;5110455;28;20043;-71
2023/10/11 03:21:17;;;;;;;18.00;5.20;;;;;;;;;;5107388;27;20047;-70
2023/10/11 03:23:46;;;;;;;18.27;4.95;;;;;;;;;;5108019;28;20051;-70
2023/10/11 03:26:19;;;;;;;11.88;4.35;;;;;;;;;;5109571;27;20036;-69
2023/10/11 03:28:56;;;;;;;20.35;5.22;;;;;;;;;;5108592;28;20055;-69
2023/10/11 03:31:23;;;;;;;22.10;4.53;;;;;;;;;;5110154;27;20092;-69
2023/10/11 03:33:51;;;;;;;23.70;5.30;;;;;;;;;;5114742;27;20494;-69
2023/10/11 03:36:27;;;;;;;17.10;4.65;;;;;;;;;;5111251;27;20514;-70
2023/10/11 03:38:54;;;;;;;21.88;5.40;;;;;;;;;;5110034;28;20113;-69
2023/10/11 03:41:28;;;;;;;22.30;5.32;;;;;;;;;;5103755;28;20048;-70
2023/10/11 03:44:00;;;;;;;17.77;4.60;;;;;;;;;;5108780;27;20487;-69
2023/10/11 03:46:33;;;;;;;18.60;5.47;;;;;;;;;;5106881;28;20055;-70
2023/10/11 03:49:14;;;;;;;18.63;5.18;;;;;;;;;;5111414;28;20458;-70
2023/10/11 03:51:43;;;;;;;26.00;5.40;;;;;;;;;;5110677;28;20123;-70
2023/10/11 03:54:13;;;;;;;16.15;4.55;;;;;;;;;;5108218;28;21136;-70
2023/10/11 03:56:45;;;;;;;17.95;5.28;;;;;;;;;;5106980;28;20039;-69
2023/10/11 03:59:13;;;;;;;20.58;5.28;;;;;;;;;;5108111;28;20060;-71
2023/10/11 04:01:43;;;;;;;22.83;5.75;;;;;;;;;;5103782;27;20127;-70
2023/10/11 04:04:10;;;;;;;22.23;5.47;;;;;;;;;;5113955;27;20143;-69
2023/10/11 04:06:37;;;;;;;22.35;5.35;;;;;;;;;;5114392;27;20058;-69
2023/10/11 04:09:22;;;;;;;19.48;5.57;;;;;;;;;;5111485;28;20035;-71
2023/10/11 04:11:54;;;;;;;19.67;5.43;;;;;;;;;;5106770;28;20047;-69
2023/10/11 04:14:25;;;;;;;20.48;5.25;;;;;;;;;;5106402;27;20048;-71
2023/10/11 04:16:55;;;;;;;22.50;5.70;;;;;;;;;;5105695;28;20116;-70
2023/10/11 04:19:22;;;;;;;17.88;4.70;;;;;;;;;;5110469;27;20055;-70
2023/10/11 04:21:56;;;;;;;27.58;5.78;;;;;;;;;;5106400;27;20047;-69
2023/10/11 04:24:26;;;;;;;22.10;5.38;;;;;;;;;;5108719;27;20047;-69
2023/10/11 04:26:58;;;;;;;21.30;5.38;;;;;;;;;;5107078;28;20096;-70
2023/10/11 04:29:31;;;;;;;26.95;5.03;;;;;;;;;;5110485;27;20131;-68
2023/10/11 04:32:14;;;;;;;22.73;5.13;;;;;;;;;;5111901;27;20044;-69
2023/10/11 04:34:48;;;;;;;21.95;5.50;;;;;;;;;;5108091;28;20047;-68
2023/10/11 04:37:27;;;;;;;17.20;5.38;;;;;;;;;;5109507;28;20047;-69
2023/10/11 04:40:14;;;;;;;22.15;5.90;;;;;;;;;;5106396;28;20052;-69
2023/10/11 04:42:42;;;;;;;21.73;6.15;;;;;;;;;;5105360;28;20051;-70
2023/10/11 04:45:21;;;;;;;22.15;6.13;;;;;;;;;;5109677;27;20043;-71
2023/10/11 04:47:52;;;;;;;19.58;5.80;;;;;;;;;;5109429;28;20059;-69
2023/10/11 04:50:22;;;;;;;25.20;5.93;;;;;;;;;;5105938;28;20135;-70
2023/10/11 04:52:50;;;;;;;24.02;6.50;;;;;;;;;;5107528;28;20042;-69
2023/10/11 04:55:26;;;;;;;20.02;6.32;;;;;;;;;;5106425;28;20051;-69
2023/10/11 04:58:04;;;;;;;23.77;5.60;;;;;;;;;;5105143;28;20043;-68
2023/10/11 05:00:43;;;;;;;19.10;5.60;;;;;;;;;;5109868;28;20043;-70
2023/10/11 05:03:12;;;;;;;28.25;6.38;;;;;;;;;;5109767;27;20089;-70
2023/10/11 05:05:58;;;;;;;25.05;5.95;;;;;;;;;;5100380;28;20080;-70
2023/10/11 05:08:50;;;;;;;27.67;6.70;;;;;;;;;;5107463;28;20135;-70
2023/10/11 05:11:25;;;;;;;25.35;6.22;;;;;;;;;;5106142;28;20039;-69
2023/10/11 05:14:07;;;;;;;23.98;5.78;;;;;;;;;;5110142;27;20087;-68
2023/10/11 05:16:37;;;;;;;22.88;6.05;;;;;;;;;;5102546;28;20047;-69
2023/10/11 05:19:06;;;;;;;22.40;6.30;;;;;;;;;;5105120;27;20052;-68
2023/10/11 05:21:38;;;;;;;22.52;6.10;;;;;;;;;;5099351;28;20151;-70
2023/10/11 05:24:14;;;;;;;24.60;5.53;;;;;;;;;;5104012;28;20051;-68
2023/10/11 05:26:48;;;;;;;27.88;5.97;;;;;;;;;;5104734;28;20486;-68
2023/10/11 05:29:24;;;;;;;21.70;6.53;;;;;;;;;;5110222;28;20483;-69
2023/10/11 05:32:19;;;;;;;21.30;6.00;;;;;;;;;;5106384;28;20507;-68
2023/10/11 05:34:51;;;;;;;24.10;6.15;;;;;;;;;;5102007;27;20138;-69
2023/10/11 05:51:19;;;;;;;25.08;6.38;;;;;;;;;;5065042;28;20052;-69
2023/10/11 05:53:49;;;;;;;14.52;5.53;;;;;;;;;;5102646;27;20052;-71
2023/10/11 05:56:20;;;;;;;20.40;5.72;;;;;;;;;;5107488;28;20116;-70
2023/10/11 05:58:50;;;;;;;22.75;5.90;;;;;;;;;;5104873;28;20175;-69
2023/10/11 06:01:19;;;;;;;19.65;6.00;;;;;;;;;;5102757;28;20422;-69
2023/10/11 06:03:48;;;;;;;18.63;5.75;;;;;;;;;;5109243;28;20409;-69
2023/10/11 06:06:26;;;;;;;17.95;6.10;;;;;;;;;;5106099;28;20090;-70
2023/10/11 06:08:54;;;;;;;23.30;6.50;;;;;;;;;;5104924;28;20086;-69
2023/10/11 06:11:23;;;;;;;18.95;6.32;;;;;;;;;;5107412;28;20047;-69
2023/10/11 06:13:52;;;;;;;17.73;5.70;;;;;;;;;;5107760;28;20055;-69
2023/10/11 06:16:22;;;;;;;27.67;6.05;;;;;;;;;;5103113;27;20048;-69
2023/10/11 06:19:15;;;;;;;18.15;6.10;;;;;;;;;;5108320;28;20103;-69
2023/10/11 06:21:56;;;;;;;18.55;6.25;;;;;;;;;;5099867;28;20536;-70
2023/10/11 06:24:23;;;;;;;21.90;6.00;;;;;;;;;;5107033;28;20538;-69
2023/10/11 06:26:53;;;;;;;18.48;5.50;;;;;;;;;;5107250;28;20048;-69
2023/10/11 06:29:25;;;;;;;15.73;5.32;;;;;;;;;;5111192;28;20047;-69
2023/10/11 06:31:53;;;;;;;16.27;5.30;;;;;;;;;;5111957;28;20043;-69
2023/10/11 06:34:25;;;;;;;19.60;5.93;;;;;;;;;;5106381;28;20064;-72
2023/10/11 06:36:53;;;;;;;14.80;5.32;;;;;;;;;;5108889;28;20075;-69
2023/10/11 06:42:23;;;;;;;22.52;5.80;;;;;;;;;;5034785;28;20060;-68
2023/10/11 06:44:52;;;;;;;16.65;5.85;;;;;;;;;;5045325;28;20050;-69
2023/10/11 06:47:20;;;;;;;24.15;5.68;;;;;;;;;;5053256;27;20044;-70
2023/10/11 06:49:54;;;;;;;17.70;6.15;;;;;;;;;;5113350;28;20615;-70
2023/10/11 06:52:25;;;;;;;17.55;6.10;;;;;;;;;;5109822;28;20090;-70
2023/10/11 06:55:07;;;;;;;15.45;5.15;;;;;;;;;;5114229;27;20069;-70
2023/10/11 06:57:39;;;;;;;14.27;5.77;;;;;;;;;;5111580;28;20044;-69
2023/10/11 07:00:20;;;;;;;20.67;6.25;;;;;;;;;;5110803;28;20290;-69
2023/10/11 07:02:48;;;;;;;16.75;6.10;;;;;;;;;;5109872;28;20126;-69
2023/10/11 07:05:19;;;;;;;21.05;6.70;;;;;;;;;;5114037;28;20124;-69
2023/10/11 07:07:48;;;;;;;26.05;5.97;;;;;;;;;;5113436;27;20441;-69
2023/10/11 07:10:32;;;;;;;19.20;5.50;;;;;;;;;;5111059;28;20403;-69
2023/10/11 07:13:06;;;;;;;14.60;5.40;;;;;;;;;;5111446;27;20055;-69
2023/10/11 07:15:51;;;;;;;21.35;5.53;;;;;;;;;;5107687;28;20131;-70
2023/10/11 07:18:25;;;;;;;15.18;4.90;;;;;;;;;;5108615;27;20074;-69
2023/10/11 07:21:07;;;;;;;15.13;5.18;;;;;;;;;;5102283;28;20504;-71
2023/10/11 07:23:46;;;;;;;10.40;4.70;;;;;;;;;;5110516;28;20043;-70
2023/10/11 07:29:00;;;;;;;12.57;4.38;;;;;;;;;;5112467;28;20130;-68
2023/10/11 07:31:33;;;;;;;9.05;4.93;;;;;;;;;;5112497;27;20051;-71
2023/10/11 07:34:05;;;;;;;16.25;4.32;;;;;;;;;;5114891;27;20051;-68
2023/10/11 07:36:32;;;;;;;13.20;4.55;;;;;;;;;;5114709;27;20044;-69
2023/10/11 07:39:14;;;;;;;14.50;4.90;;;;;;;;;;5112039;28;20491;-69
2023/10/11 07:41:42;;;;;;;15.45;4.38;;;;;;;;;;5102135;28;20510;-68
2023/10/11 07:44:10;;;;;;;10.98;4.40;;;;;;;;;;5110835;28;20483;-69
2023/10/11 07:46:38;;;;;;;15.20;4.63;;;;;;;;;;5112176;27;20055;-70
2023/10/11 07:49:06;;;;;;;16.27;4.40;;;;;;;;;;5104781;27;20071;-69
2023/10/11 07:51:36;;;;;;;10.68;4.35;;;;;;;;;;5109326;27;20137;-69
2023/10/11 07:54:06;;;;;;;13.93;4.90;;;;;;;;;;5105783;27;20332;-69
2023/10/11 07:56:35;;;;;;;10.32;4.60;;;;;;;;;;5102257;27;20055;-68
2023/10/11 07:59:07;;;;;;;12.05;4.65;;;;;;;;;;5108135;27;20126;-69
2023/10/11 08:01:42;;;;;;;17.83;5.22;;;;;;;;;;5105728;28;20605;-69
2023/10/11 08:04:12;;;;;;;16.48;5.68;;;;;;;;;;5109133;27;20040;-69
2023/10/11 08:06:41;;;;;;;18.13;5.88;;;;;;;;;;5109141;28;20044;-70
2023/10/11 08:09:09;;;;;;;13.63;5.53;;;;;;;;;;5105385;28;20043;-71
2023/10/11 08:11:48;;;;;;;13.90;5.57;;;;;;;;;;5105688;28;20047;-70
2023/10/11 08:14:15;;;;;;;22.27;6.50;;;;;;;;;;5101460;27;20047;-69
2023/10/11 08:16:47;;;;;;;10.20;5.03;;;;;;;;;;5105157;27;20112;-70
2023/10/11 08:19:15;;;;;;;15.48;5.20;;;;;;;;;;5099216;28;20475;-69
2023/10/11 08:21:47;;;;;;;16.88;5.28;;;;;;;;;;5096584;28;20051;-69
2023/10/11 08:24:16;;;;;;;12.13;4.68;;;;;;;;;;5104783;28;20047;-70
2023/10/11 08:26:45;;;;;;;13.18;5.10;;;;;;;;;;5108970;27;20051;-69
2023/10/11 08:29:27;;;;;;;9.55;4.93;;;;;;;;;;5102547;27;20055;-69
2023/10/11 08:31:56;;;;;;;12.33;4.83;;;;;;;;;;5107633;27;20120;-70
2023/10/11 08:34:26;;;;;;;15.40;5.40;;;;;;;;;;5110280;27;20050;-69
2023/10/11 08:36:55;;;;;;;11.10;5.07;;;;;;;;;;5106490;28;20400;-71
2023/10/11 08:39:35;;;;;;;12.45;4.32;;;;;;;;;;5105146;28;20048;-71
2023/10/11 08:42:06;;;;;;;13.70;4.90;;;;;;;;;;5096996;28;20052;-71
2023/10/11 08:44:33;;;;;;;12.63;4.28;;;;;;;;;;5105455;28;20273;-71
2023/10/11 08:47:04;;;;;;;10.63;4.38;;;;;;;;;;5100607;27;20051;-69
2023/10/11 08:49:34;;;;;;;10.00;4.13;;;;;;;;;;5106594;27;20055;-71
2023/10/11 08:52:01;;;;;;;9.32;4.35;;;;;;;;;;5104120;27;20123;-69
2023/10/11 08:54:30;;;;;;;9.45;3.97;;;;;;;;;;5104541;27;20079;-70
2023/10/11 08:56:58;;;;;;;11.43;3.97;;;;;;;;;;5101593;27;20043;-69
2023/10/11 08:59:26;;;;;;;10.02;4.30;;;;;;;;;;5104050;28;20502;-70
2023/10/11 09:01:55;;;;;;;10.07;3.78;;;;;;;;;;5101275;28;20461;-70
2023/10/11 09:04:27;;;;;;;13.60;4.07;;;;;;;;;;5102975;28;20513;-70
2023/10/11 09:06:57;;;;;;;12.40;3.60;;;;;;;;;;5104693;27;20051;-69
2023/10/11 09:09:39;;;;;;;10.32;4.22;;;;;;;;;;5103974;28;20077;-70
2023/10/11 09:15:04;;;;;;;9.90;3.47;;;;;;;;;;5098421;27;20782;-67
2023/10/11 09:17:38;;;;;;;14.25;4.40;;;;;;;;;;5082070;28;20048;-67
2023/10/11 09:20:15;;;;;;;11.35;3.80;;;;;;;;;;5085554;28;20076;-66
2023/10/11 09:22:47;;;;;;;12.27;4.10;;;;;;;;;;5082816;28;20087;-68
2023/10/11 09:25:21;;;;;;;12.73;4.40;;;;;;;;;;5085138;28;20063;-66
2023/10/11 09:27:49;;;;;;;13.85;4.40;;;;;;;;;;5082449;28;20075;-68
2023/10/11 09:30:25;;;;;;;12.52;3.53;;;;;;;;;;5085572;28;20488;-67
2023/10/11 09:32:53;;;;;;;9.05;3.55;;;;;;;;;;5080635;28;20406;-67
2023/10/11 09:35:27;;;;;;;10.80;3.88;;;;;;;;;;5080498;28;20055;-68
2023/10/11 09:37:56;;;;;;;14.63;3.58;;;;;;;;;;5082543;28;20060;-66
2023/10/11 09:40:29;;;;;;;10.07;3.47;;;;;;;;;;5081930;28;20063;-67
2023/10/11 09:43:00;;;;;;;9.57;3.45;;;;;;;;;;5082983;28;20407;-67
2023/10/11 09:45:40;;;;;;;13.85;3.42;;;;;;;;;;5081683;28;20058;-67
2023/10/11 09:48:08;;;;;;;9.88;3.15;;;;;;;;;;5080248;28;20406;-67
2023/10/11 09:50:40;;;;;;;9.90;3.35;;;;;;;;;;5081211;28;20097;-66
2023/10/11 09:53:08;;;;;;;7.88;3.35;;;;;;;;;;5085026;28;20044;-67
2023/10/11 09:55:38;;;;;;;9.85;3.72;;;;;;;;;;5084957;28;20055;-67
2023/10/11 09:58:12;;;;;;;13.23;4.03;;;;;;;;;;5082188;28;20079;-66
2023/10/11 10:00:45;;;;;;;16.58;4.07;;;;;;;;;;5079879;28;20087;-66
2023/10/11 10:03:13;;;;;;;13.77;4.18;;;;;;;;;;5082859;28;20052;-66
2023/10/11 10:06:00;;;;;;;14.70;3.58;;;;;;;;;;5085341;28;20373;-66
2023/10/11 10:08:29;;;;;;;9.15;3.80;;;;;;;;;;5083315;28;20052;-66
2023/10/11 10:10:56;;;;;;;12.23;3.47;;;;;;;;;;5083131;28;20048;-67
2023/10/11 10:13:24;;;;;;;12.63;3.53;;;;;;;;;;5073612;28;20103;-68
2023/10/11 10:15:53;;;;;;;8.73;3.05;;;;;;;;;;5085243;28;20052;-67
2023/10/11 10:18:22;;;;;;;13.85;3.60;;;;;;;;;;5079627;28;20110;-67
2023/10/11 10:21:01;;;;;;;9.70;3.40;;;;;;;;;;5080177;28;20053;-66
2023/10/11 10:23:37;;;;;;;15.05;3.60;;;;;;;;;;5074716;28;20110;-66
2023/10/11 10:26:38;;;;;;;12.88;3.28;;;;;;;;;;5063991;28;20060;-66
2023/10/11 10:29:07;;;;;;;12.23;3.35;;;;;;;;;;5071498;28;20060;-66
2023/10/11 10:31:35;;;;;;;10.23;3.17;;;;;;;;;;5068434;28;20052;-67
2023/10/11 10:34:21;;;;;;;11.65;3.22;;;;;;;;;;5069918;28;20052;-66
2023/10/11 10:36:50;;;;;;;9.13;3.58;;;;;;;;;;5067286;28;20147;-66
2023/10/11 10:42:12;;;;;;;8.65;3.47;;;;;;;;;;5068730;28;20075;-67
2023/10/11 10:44:49;;;;;;;10.75;3.10;;;;;;;;;;5065574;28;20041;-68
2023/10/11 10:47:23;;;;;;;11.45;3.05;;;;;;;;;;5064317;28;20045;-67
2023/10/11 10:49:51;;;;;;;15.38;3.20;;;;;;;;;;5060863;28;20106;-66
2023/10/11 10:52:19;;;;;;;10.98;2.88;;;;;;;;;;5056093;28;20041;-67
2023/10/11 10:55:01;;;;;;;10.43;2.75;;;;;;;;;;5055671;28;20051;-66
2023/10/11 10:57:31;;;;;;;7.78;2.72;;;;;;;;;;5068509;28;20076;-67
2023/10/11 10:59:57;;;;;;;13.90;3.40;;;;;;;;;;5067840;28;20075;-67
2023/10/11 11:02:26;;;;;;;9.00;3.08;;;;;;;;;;5067834;28;20051;-66
2023/10/11 11:04:52;;;;;;;10.07;3.15;;;;;;;;;;5057873;28;20057;-68
2023/10/11 11:07:23;;;;;;;13.00;2.92;;;;;;;;;;5069293;28;20037;-66
2023/10/11 11:09:54;;;;;;;8.38;2.92;;;;;;;;;;5070247;28;20462;-67
2023/10/11 11:12:27;;;;;;;10.88;3.15;;;;;;;;;;5067520;28;20503;-67
2023/10/11 11:14:55;;;;;;;;;;;;;;;;;;5071075;28;20052;-69
2023/10/11 11:17:23;;;;;;;9.48;2.88;;;;;;;;;;5066751;28;20394;-67
2023/10/11 11:20:12;;;;;;;11.85;3.20;;;;;;;;;;5070218;28;20052;-69
2023/10/11 11:22:40;;;;;;;14.18;2.97;;;;;;;;;;5070138;28;20066;-69
2023/10/11 11:25:18;;;;;;;9.90;2.83;;;;;;;;;;5067976;28;20049;-66
2023/10/11 11:27:45;;;;;;;13.45;3.50;;;;;;;;;;5063384;28;20062;-68
2023/10/11 11:30:16;;;;;;;12.70;3.40;;;;;;;;;;5068168;28;20055;-67
2023/10/11 11:32:45;;;;;;;9.13;2.88;;;;;;;;;;5070753;28;20528;-67
2023/10/11 11:35:28;;;;;;;10.02;2.83;;;;;;;;;;5067151;28;20132;-67
2023/10/11 11:38:01;;;;;;;13.02;3.60;;;;;;;;;;5062009;28;20090;-67
2023/10/11 11:40:27;;;;;;;12.15;3.35;;;;;;;;;;5067981;28;20043;-66
2023/10/11 11:42:55;;;;;;;10.23;3.50;;;;;;;;;;5060410;28;20442;-66
2023/10/11 11:45:25;;;;;;;9.30;3.25;;;;;;;;;;5069589;28;20050;-66
2023/10/11 11:47:56;;;;;;;10.18;3.30;;;;;;;;;;5061543;28;20052;-66
2023/10/11 11:50:24;;;;;;;15.05;3.28;;;;;;;;;;5067133;28;20045;-68
2023/10/11 11:52:51;;;;;;;14.60;3.58;;;;;;;;;;5065878;28;20053;-67
2023/10/11 11:55:20;;;;;;;16.63;3.22;;;;;;;;;;5068892;28;20500;-68
2023/10/11 11:57:48;;;;;;;19.98;3.50;;;;;;;;;;5067035;28;20062;-67
2023/10/11 12:02:58;;;;;;;15.75;3.45;;;;;;;;;;5062212;28;20071;-66
2023/10/11 12:05:27;;;;;;;8.45;3.10;;;;;;;;;;5062070;28;20051;-67
2023/10/11 12:07:57;;;;;;;12.02;2.97;;;;;;;;;;5064557;28;20499;-66
2023/10/11 12:10:24;;;;;;;14.95;3.38;;;;;;;;;;5067111;28;20518;-66
2023/10/11 12:12:51;;;;;;;9.63;3.08;;;;;;;;;;5065007;28;20045;-67
2023/10/11 12:15:18;;;;;;;11.98;3.35;;;;;;;;;;5063282;28;20067;-69
2023/10/11 12:17:47;;;;;;;9.43;2.63;;;;;;;;;;5062498;28;20044;-66
2023/10/11 12:20:15;;;;;;;11.68;3.17;;;;;;;;;;5066835;28;20087;-66
2023/10/11 12:22:44;;;;;;;10.13;2.80;;;;;;;;;;5068773;28;20672;-67
2023/10/11 12:25:11;;;;;;;11.50;3.10;;;;;;;;;;5063509;28;20518;-68
2023/10/11 12:27:40;;;;;;;11.45;3.28;;;;;;;;;;5066914;28;20055;-67
2023/10/11 12:30:19;;;;;;;12.57;3.50;;;;;;;;;;5066288;28;20144;-66
2023/10/11 12:32:46;;;;;;;10.73;2.83;;;;;;;;;;5063028;28;20544;-67
2023/10/11 12:35:14;;;;;;;12.75;3.22;;;;;;;;;;5063387;28;20051;-69
2023/10/11 12:37:41;;;;;;;11.02;3.47;;;;;;;;;;5060082;28;20044;-66
2023/10/11 12:40:13;;;;;;;14.85;3.45;;;;;;;;;;5065184;28;20052;-68
2023/10/11 12:42:41;;;;;;;10.93;3.03;;;;;;;;;;5063716;28;20048;-67
2023/10/11 12:45:08;;;;;;;15.55;3.40;;;;;;;;;;5064122;28;20053;-67
2023/10/11 12:47:36;;;;;;;10.70;3.20;;;;;;;;;;5062137;28;20062;-67
2023/10/11 12:50:03;;;;;;;13.85;3.90;;;;;;;;;;5065330;28;20056;-68
2023/10/11 12:52:32;;;;;;;17.23;3.80;;;;;;;;;;5066706;28;21177;-67
2023/10/11 12:55:00;;;;;;;12.60;3.20;;;;;;;;;;5065283;28;20480;-67
2023/10/11 12:57:30;;;;;;;11.57;3.33;;;;;;;;;;5064689;28;20106;-68
2023/10/11 12:59:58;;;;;;;13.55;3.38;;;;;;;;;;5066584;28;20045;-67
2023/10/11 13:02:33;;;;;;;17.02;3.20;;;;;;;;;;5066529;28;20045;-66
2023/10/11 13:05:00;;;;;;;11.40;3.20;;;;;;;;;;5064813;28;20045;-67
2023/10/11 13:07:28;;;;;;;10.48;3.42;;;;;;;;;;5067131;28;20224;-68
2023/10/11 13:10:02;;;;;;;9.45;2.92;;;;;;;;;;5066550;28;20072;-68
2023/10/11 13:12:37;;;;;;;10.48;3.00;;;;;;;;;;5063726;28;20080;-68
2023/10/11 13:15:08;;;;;;;11.95;2.97;;;;;;;;;;5063460;28;20080;-67
2023/10/11 13:17:40;;;;;;;11.18;3.00;;;;;;;;;;5064675;28;20044;-67
2023/10/11 13:20:18;;;;;;;13.30;2.97;;;;;;;;;;5062761;28;20068;-68
2023/10/11 13:22:45;;;;;;;11.05;2.80;;;;;;;;;;5063821;28;20056;-67
2023/10/11 13:25:23;;;;;;;11.63;3.22;;;;;;;;;;5055066;28;20043;-66
2023/10/11 13:27:54;;;;;;;12.77;2.78;;;;;;;;;;5061951;28;20088;-67
2023/10/11 13:30:23;;;;;;;10.63;3.00;;;;;;;;;;5054676;28;20037;-67
2023/10/11 13:32:51;;;;;;;17.08;3.00;;;;;;;;;;5064517;28;20052;-68
2023/10/11 13:35:19;;;;;;;14.07;3.45;;;;;;;;;;5067350;28;20388;-67
2023/10/11 13:37:47;;;;;;;12.88;3.22;;;;;;;;;;5067811;28;20044;-69
2023/10/11 13:40:16;;;;;;;13.05;3.65;;;;;;;;;;5063155;28;20105;-67
2023/10/11 13:42:44;;;;;;;9.20;2.92;;;;;;;;;;5061220;28;20560;-69
2023/10/11 13:45:16;;;;;;;7.97;3.17;;;;;;;;;;5065050;28;20091;-67
2023/10/11 13:47:45;;;;;;;12.95;3.60;;;;;;;;;;5061055;28;20084;-68
2023/10/11 13:50:20;;;;;;;12.02;3.65;;;;;;;;;;5065023;28;20466;-68
2023/10/11 13:52:51;;;;;;;13.82;3.03;;;;;;;;;;5066656;28;20056;-68
2023/10/11 13:55:23;;;;;;;16.90;3.20;;;;;;;;;;5066270;28;20588;-67
2023/10/11 13:57:52;;;;;;;14.90;3.30;;;;;;;;;;5061883;28;20052;-67
2023/10/11 14:03:32;;;;;;;13.65;2.83;;;;;;;;;;5061717;28;20055;-67
2023/10/11 14:06:20;;;;;;;14.65;3.20;;;;;;;;;;5064091;28;20044;-66
2023/10/11 14:08:48;;;;;;;13.73;2.55;;;;;;;;;;5064381;28;20048;-67
2023/10/11 14:11:17;;;;;;;15.25;3.38;;;;;;;;;;5064815;28;20056;-69
2023/10/11 14:13:50;;;;;;;14.98;3.10;;;;;;;;;;5063274;28;20095;-68
2023/10/11 14:16:27;;;;;;;11.32;2.95;;;;;;;;;;5070129;28;20504;-68
2023/10/11 14:18:56;;;;;;;12.27;3.20;;;;;;;;;;5071194;28;20125;-67
2023/10/11 14:21:25;;;;;;;17.15;3.20;;;;;;;;;;5072623;28;20048;-68
2023/10/11 14:23:52;;;;;;;9.30;2.33;;;;;;;;;;5064494;28;20516;-68
2023/10/11 14:26:22;;;;;;;11.27;3.30;;;;;;;;;;5060027;28;20386;-67
2023/10/11 14:28:50;;;;;;;12.27;3.10;;;;;;;;;;5068547;28;20520;-66
2023/10/11 14:31:22;;;;;;;12.02;2.97;;;;;;;;;;5070496;28;20045;-67
2023/10/11 14:33:52;;;;;;;11.63;3.08;;;;;;;;;;5062587;28;20131;-67
2023/10/11 14:36:23;;;;;;;11.93;2.85;;;;;;;;;;5071615;28;20559;-68
2023/10/11 14:38:52;;;;;;;16.13;3.20;;;;;;;;;;5063007;28;20057;-67
2023/10/11 14:41:23;;;;;;;10.77;3.17;;;;;;;;;;5068649;28;20044;-67
2023/10/11 14:43:51;;;;;;;13.00;3.00;;;;;;;;;;5056591;28;20057;-67
2023/10/11 14:46:19;;;;;;;16.35;3.45;;;;;;;;;;5060789;28;20048;-66
2023/10/11 14:48:49;;;;;;;9.45;2.60;;;;;;;;;;5065987;28;20454;-67
2023/10/11 14:51:18;;;;;;;13.13;2.90;;;;;;;;;;5066336;28;20041;-66
2023/10/11 14:53:46;;;;;;;14.63;3.60;;;;;;;;;;5070192;28;20050;-68
2023/10/11 14:56:14;;;;;;;12.23;2.90;;;;;;;;;;5067858;28;20441;-67
2023/10/11 14:58:42;;;;;;;6.90;2.80;;;;;;;;;;5060034;28;20067;-65
2023/10/11 15:01:12;;;;;;;11.23;3.63;;;;;;;;;;5059573;28;20049;-67
2023/10/11 15:03:40;;;;;;;18.75;3.97;;;;;;;;;;5068466;28;20396;-67
2023/10/11 15:06:08;;;;;;;12.60;3.90;;;;;;;;;;5064047;28;20057;-67
2023/10/11 15:08:38;;;;;;;14.05;3.95;;;;;;;;;;5071652;28;20052;-69
2023/10/11 15:11:05;;;;;;;21.40;4.30;;;;;;;;;;5068871;28;20114;-68
2023/10/11 15:13:34;;;;;;;14.60;4.78;;;;;;;;;;5069390;28;20048;-69
2023/10/11 15:16:03;;;;;;;17.73;4.07;;;;;;;;;;5064406;28;20071;-68
2023/10/11 15:18:32;;;;;;;19.88;4.60;;;;;;;;;;5067743;28;20396;-68
2023/10/11 15:21:01;;;;;;;20.02;4.43;;;;;;;;;;5069726;28;20051;-67
2023/10/11 15:23:29;;;;;;;33.70;4.85;;;;;;;;;;5069937;28;20110;-69
2023/10/11 15:25:59;;;;;;;16.42;3.78;;;;;;;;;;5068353;28;20114;-66